Time;durP1;ratioP1;P1;durP2;ratioP2;P2;SDS_P1;SDS_P2;PMS_P1;PMS_P2;Temp;Humidity;BMP_temperature;BMP_pressure;BME280_temperature;BME280_humidity;BME280_pressure;Samples;Min_cycle;Max_cycle;Signal;HPM_P1;HPM_P2
2021/12/01 00:01:39;;;;;;;4.63;3.88;;;9.70;99.90;;;;;;5073140;28;20048;-80
2021/12/01 00:04:05;;;;;;;5.35;4.28;;;9.70;99.90;;;;;;5084460;28;20127;-80
2021/12/01 00:06:31;;;;;;;5.10;4.30;;;9.60;99.90;;;;;;5090563;28;20063;-80
2021/12/01 00:08:56;;;;;;;6.53;4.68;;;9.70;99.90;;;;;;5085176;28;20027;-80
2021/12/01 00:11:22;;;;;;;5.93;5.03;;;9.60;99.90;;;;;;5092101;28;20024;-81
2021/12/01 00:13:48;;;;;;;6.78;5.65;;;9.60;99.90;;;;;;5085032;28;20029;-81
2021/12/01 00:16:13;;;;;;;5.03;4.60;;;9.60;99.90;;;;;;5060570;28;20504;-81
2021/12/01 00:18:39;;;;;;;6.20;5.60;;;9.60;99.90;;;;;;5084519;28;20450;-80
2021/12/01 00:21:05;;;;;;;5.90;5.18;;;9.60;99.90;;;;;;5069144;28;20040;-80
2021/12/01 00:23:30;;;;;;;5.70;5.18;;;9.60;99.90;;;;;;5086203;28;20047;-81
2021/12/01 00:25:56;;;;;;;9.85;5.45;;;9.60;99.90;;;;;;5085153;28;20415;-81
2021/12/01 00:28:22;;;;;;;6.60;5.90;;;9.60;99.90;;;;;;5084581;28;20028;-81
2021/12/01 00:30:48;;;;;;;6.88;5.65;;;9.60;99.90;;;;;;5086926;28;20017;-80
2021/12/01 00:33:17;;;;;;;6.32;5.57;;;9.60;99.90;;;;;;5082447;28;20028;-80
2021/12/01 00:35:44;;;;;;;6.72;6.00;;;9.60;99.90;;;;;;5088263;28;20038;-80
2021/12/01 00:38:10;;;;;;;6.78;5.90;;;9.60;99.90;;;;;;5089529;28;20510;-80
2021/12/01 00:40:35;;;;;;;5.80;5.30;;;9.60;99.90;;;;;;5075424;28;20032;-79
2021/12/01 00:43:01;;;;;;;9.52;6.13;;;9.60;99.90;;;;;;5085003;28;20040;-79
2021/12/01 00:45:28;;;;;;;6.72;6.03;;;9.60;99.90;;;;;;5082581;28;20119;-80
2021/12/01 00:47:54;;;;;;;7.15;5.57;;;9.50;99.90;;;;;;5104229;28;20020;-79
2021/12/01 00:50:30;;;;;;;5.95;5.22;;;9.50;99.90;;;;;;5078737;28;20028;-79
2021/12/01 00:52:59;;;;;;;6.10;5.50;;;9.50;99.90;;;;;;5102815;28;20477;-80
2021/12/01 00:55:26;;;;;;;6.22;4.97;;;9.50;99.90;;;;;;5104689;28;20030;-80
2021/12/01 00:57:53;;;;;;;5.93;5.30;;;9.50;99.90;;;;;;5102353;28;20519;-80
2021/12/01 01:00:21;;;;;;;8.82;6.22;;;9.50;99.90;;;;;;5095413;28;20028;-79
2021/12/01 01:02:47;;;;;;;5.97;5.47;;;9.50;99.90;;;;;;5072921;28;20034;-79
2021/12/01 01:05:13;;;;;;;7.50;5.68;;;9.50;99.90;;;;;;5110867;28;20028;-79
2021/12/01 01:07:39;;;;;;;7.05;5.53;;;9.50;99.90;;;;;;5074542;28;20484;-80
2021/12/01 01:18:22;;;;;;;6.55;5.10;;;9.40;99.90;;;;;;5099284;28;20092;-79
2021/12/01 01:20:48;;;;;;;6.00;5.25;;;9.40;99.90;;;;;;5093752;28;20036;-79
2021/12/01 01:23:14;;;;;;;5.57;4.85;;;9.40;99.90;;;;;;5109017;28;20027;-79
2021/12/01 01:25:40;;;;;;;6.70;5.45;;;9.40;99.90;;;;;;5066440;28;20034;-80
2021/12/01 01:28:05;;;;;;;9.18;5.15;;;9.40;99.90;;;;;;5090041;28;20019;-79
2021/12/01 01:30:32;;;;;;;6.47;5.30;;;9.40;99.90;;;;;;5111656;28;20058;-79
2021/12/01 01:32:58;;;;;;;7.30;5.30;;;9.40;99.90;;;;;;5077235;28;20059;-80
2021/12/01 01:35:24;;;;;;;5.50;4.85;;;9.50;99.90;;;;;;5112634;28;20020;-79
2021/12/01 01:37:49;;;;;;;5.28;4.68;;;9.50;99.90;;;;;;5109329;28;20031;-80
2021/12/01 01:40:15;;;;;;;5.47;4.82;;;9.50;99.90;;;;;;5085661;28;20027;-80
2021/12/01 01:42:42;;;;;;;6.05;5.28;;;9.40;99.90;;;;;;5105128;28;20028;-80
2021/12/01 01:45:08;;;;;;;7.60;4.78;;;9.40;99.90;;;;;;5071771;28;20063;-80
2021/12/01 01:47:35;;;;;;;4.75;4.22;;;9.40;99.90;;;;;;5084689;28;20111;-80
2021/12/01 01:50:22;;;;;;;6.90;4.60;;;9.40;99.90;;;;;;5085498;28;20034;-80
2021/12/01 01:52:47;;;;;;;6.95;4.30;;;9.40;99.90;;;;;;5089983;28;20677;-80
2021/12/01 01:55:13;;;;;;;4.28;3.88;;;9.40;99.90;;;;;;5086838;28;20028;-81
2021/12/01 01:57:38;;;;;;;4.30;3.90;;;9.40;99.90;;;;;;5112572;28;20034;-77
2021/12/01 02:00:08;;;;;;;4.07;3.67;;;9.50;99.90;;;;;;5062180;28;20032;-77
2021/12/01 02:02:34;;;;;;;3.75;3.42;;;9.40;99.90;;;;;;5083804;28;20477;-77
2021/12/01 02:05:00;;;;;;;7.60;3.90;;;9.50;99.90;;;;;;5081529;28;20044;-77
2021/12/01 02:07:26;;;;;;;5.07;3.95;;;9.50;99.90;;;;;;5091832;28;20020;-77
2021/12/01 02:09:51;;;;;;;5.13;4.10;;;9.50;99.90;;;;;;5062312;28;20093;-77
2021/12/01 02:12:17;;;;;;;3.78;3.38;;;9.50;99.90;;;;;;5108206;28;20031;-77
2021/12/01 02:14:43;;;;;;;4.47;3.58;;;9.50;99.90;;;;;;5063865;28;20028;-77
2021/12/01 02:17:09;;;;;;;3.72;3.42;;;9.50;99.90;;;;;;5068693;28;20346;-78
2021/12/01 02:19:38;;;;;;;5.82;3.15;;;9.50;99.90;;;;;;5086796;28;20116;-77
2021/12/01 02:22:04;;;;;;;3.55;3.22;;;9.40;99.90;;;;;;5098967;28;20380;-77
2021/12/01 02:24:30;;;;;;;3.92;3.63;;;9.50;99.90;;;;;;5105057;28;20024;-77
2021/12/01 02:26:56;;;;;;;4.40;3.55;;;9.50;99.90;;;;;;5084091;28;20418;-78
2021/12/01 02:29:24;;;;;;;4.70;3.42;;;9.50;99.90;;;;;;5076157;28;22054;-77
2021/12/01 02:31:51;;;;;;;3.40;3.10;;;9.40;99.90;;;;;;5110573;28;20024;-78
2021/12/01 02:34:23;;;;;;;3.95;3.60;;;9.40;99.90;;;;;;5082559;28;20043;-77
2021/12/01 02:36:58;;;;;;;4.82;4.03;;;9.50;99.90;;;;;;5091773;28;20033;-77
2021/12/01 02:39:24;;;;;;;5.63;3.80;;;9.40;99.90;;;;;;5073420;28;20054;-78
2021/12/01 02:41:53;;;;;;;5.57;3.80;;;9.40;99.90;;;;;;5089014;28;20067;-77
2021/12/01 02:44:20;;;;;;;5.30;3.75;;;9.40;99.90;;;;;;5086237;28;20108;-77
2021/12/01 02:46:46;;;;;;;3.60;3.30;;;9.40;99.90;;;;;;5087409;28;20035;-77
2021/12/01 02:49:12;;;;;;;7.93;3.75;;;9.40;99.90;;;;;;5085696;28;20020;-78
2021/12/01 02:51:39;;;;;;;4.10;3.70;;;9.40;99.90;;;;;;5072178;28;20032;-78
2021/12/01 02:54:05;;;;;;;4.25;3.75;;;9.30;99.90;;;;;;5083355;28;20064;-77
2021/12/01 02:56:32;;;;;;;6.35;4.07;;;9.30;99.90;;;;;;5089678;28;20031;-77
2021/12/01 02:59:00;;;;;;;5.57;3.92;;;9.30;99.90;;;;;;5088538;28;20024;-77
2021/12/01 03:01:27;;;;;;;4.68;3.47;;;9.30;99.90;;;;;;5102827;28;20039;-77
2021/12/01 03:03:53;;;;;;;5.30;3.53;;;9.30;99.90;;;;;;5066211;28;20480;-77
2021/12/01 03:06:22;;;;;;;3.80;3.40;;;9.30;99.90;;;;;;5101448;28;20145;-77
2021/12/01 03:08:48;;;;;;;3.77;3.40;;;9.30;99.90;;;;;;5079558;28;20535;-77
2021/12/01 03:11:15;;;;;;;6.45;3.60;;;9.20;99.90;;;;;;5085748;28;20034;-77
2021/12/01 03:13:41;;;;;;;3.65;3.35;;;9.30;99.90;;;;;;5097498;28;20028;-78
2021/12/01 03:16:07;;;;;;;7.18;4.00;;;9.20;99.90;;;;;;5080206;28;20043;-78
2021/12/01 03:18:33;;;;;;;4.22;3.83;;;9.30;99.90;;;;;;5083756;28;20105;-78
2021/12/01 03:20:59;;;;;;;3.97;3.47;;;9.20;99.90;;;;;;5079868;28;20051;-77
2021/12/01 03:23:25;;;;;;;4.40;3.90;;;9.30;99.90;;;;;;5085789;28;20036;-77
2021/12/01 03:25:52;;;;;;;4.55;3.70;;;9.30;99.90;;;;;;5070024;28;20024;-78
2021/12/01 03:28:18;;;;;;;4.57;4.18;;;9.20;99.90;;;;;;5101290;28;20072;-78
2021/12/01 03:30:44;;;;;;;6.55;4.20;;;9.20;99.90;;;;;;5069254;28;20024;-78
2021/12/01 03:33:15;;;;;;;5.50;4.15;;;9.20;99.90;;;;;;5057405;28;20027;-78
2021/12/01 03:35:44;;;;;;;5.57;4.13;;;9.20;99.90;;;;;;5084272;28;20380;-78
2021/12/01 03:38:11;;;;;;;9.95;4.70;;;9.20;99.90;;;;;;5087838;28;20032;-77
2021/12/01 03:40:36;;;;;;;4.80;4.38;;;9.20;99.90;;;;;;5108201;28;20046;-77
2021/12/01 03:43:02;;;;;;;7.18;4.43;;;9.20;99.90;;;;;;5101708;28;20106;-78
2021/12/01 03:45:28;;;;;;;5.82;4.38;;;9.20;99.90;;;;;;5064761;28;20068;-78
2021/12/01 03:47:54;;;;;;;5.95;4.45;;;9.20;99.90;;;;;;5064933;28;20033;-78
2021/12/01 03:50:20;;;;;;;5.78;4.47;;;9.10;99.90;;;;;;5080213;28;20496;-78
2021/12/01 03:52:45;;;;;;;5.28;4.57;;;9.20;99.90;;;;;;5069948;28;20032;-78
2021/12/01 03:55:11;;;;;;;5.88;4.75;;;9.10;99.90;;;;;;5061995;28;20058;-78
2021/12/01 03:57:37;;;;;;;5.53;4.60;;;9.10;99.90;;;;;;5079646;28;20391;-77
2021/12/01 04:00:07;;;;;;;6.90;5.10;;;9.10;99.90;;;;;;5081906;28;20021;-77
2021/12/01 04:02:33;;;;;;;5.10;4.60;;;9.10;99.90;;;;;;5088984;28;20038;-77
2021/12/01 04:04:58;;;;;;;5.47;4.97;;;9.10;99.90;;;;;;5049219;28;20118;-77
2021/12/01 04:07:24;;;;;;;5.78;5.18;;;9.10;99.90;;;;;;5065144;28;20043;-78
2021/12/01 04:09:50;;;;;;;6.05;5.07;;;9.00;99.90;;;;;;5064960;28;20032;-78
2021/12/01 04:12:17;;;;;;;8.52;5.63;;;9.00;99.90;;;;;;5067622;28;20028;-77
2021/12/01 04:14:43;;;;;;;7.25;5.80;;;9.00;99.90;;;;;;5061133;28;20039;-81
2021/12/01 04:17:09;;;;;;;9.45;6.55;;;9.00;99.90;;;;;;5076320;28;20024;-81
2021/12/01 04:19:35;;;;;;;10.25;6.20;;;9.00;99.90;;;;;;5083355;28;20854;-81
2021/12/01 04:22:00;;;;;;;6.68;5.93;;;9.00;99.90;;;;;;5068799;28;20035;-81
2021/12/01 04:24:26;;;;;;;8.63;6.13;;;9.00;99.90;;;;;;5079323;28;20121;-81
2021/12/01 04:26:52;;;;;;;7.47;5.85;;;9.00;99.90;;;;;;5083395;28;20048;-81
2021/12/01 04:29:18;;;;;;;8.05;5.70;;;9.00;99.90;;;;;;5094297;28;20463;-81
2021/12/01 04:31:44;;;;;;;9.70;5.93;;;9.00;99.90;;;;;;5083221;28;20035;-80
2021/12/01 04:34:10;;;;;;;8.55;6.72;;;8.90;99.90;;;;;;5095073;28;20601;-79
2021/12/01 04:36:39;;;;;;;8.63;6.13;;;8.90;99.90;;;;;;5083678;28;20029;-80
2021/12/01 04:39:08;;;;;;;9.40;6.65;;;8.90;99.90;;;;;;5087477;28;20016;-80
2021/12/01 04:41:39;;;;;;;7.88;6.03;;;8.90;99.90;;;;;;5095785;28;20144;-80
2021/12/01 04:44:12;;;;;;;9.77;5.85;;;8.90;99.90;;;;;;5102860;28;20077;-80
2021/12/01 04:46:46;;;;;;;8.43;5.53;;;8.90;99.90;;;;;;5112415;28;20048;-80
2021/12/01 04:49:15;;;;;;;7.60;5.50;;;8.90;99.90;;;;;;5106811;28;20038;-80
2021/12/01 04:51:42;;;;;;;;;;;8.90;99.90;;;;;;5106315;28;20015;-80
2021/12/01 04:54:08;;;;;;;7.00;4.60;;;8.90;99.90;;;;;;5088872;28;20003;-80
2021/12/01 04:56:35;;;;;;;6.38;5.22;;;8.80;99.90;;;;;;5084841;28;20131;-80
2021/12/01 04:59:01;;;;;;;7.95;4.75;;;8.80;99.90;;;;;;5091822;28;20023;-80
2021/12/01 05:01:26;;;;;;;5.63;4.82;;;8.80;99.90;;;;;;5088924;28;20073;-80
2021/12/01 05:03:52;;;;;;;7.38;4.00;;;8.80;99.90;;;;;;5071861;28;20411;-80
2021/12/01 05:06:18;;;;;;;7.20;4.30;;;8.80;99.90;;;;;;5099605;28;20024;-80
2021/12/01 05:08:44;;;;;;;4.90;3.92;;;8.80;99.90;;;;;;5084845;28;20039;-80
2021/12/01 05:11:10;;;;;;;5.03;3.45;;;8.80;99.90;;;;;;5081982;28;20012;-80
2021/12/01 05:13:35;;;;;;;5.25;3.30;;;8.80;99.90;;;;;;5105791;28;20483;-80
2021/12/01 05:16:01;;;;;;;4.78;3.80;;;8.80;99.90;;;;;;5103534;28;20027;-80
2021/12/01 05:18:27;;;;;;;3.67;3.15;;;8.80;99.90;;;;;;5106126;28;20062;-80
2021/12/01 05:20:53;;;;;;;4.30;3.15;;;8.80;99.90;;;;;;5114423;28;20118;-80
2021/12/01 05:23:18;;;;;;;6.68;2.50;;;8.80;99.90;;;;;;5088112;28;20055;-80
2021/12/01 05:25:46;;;;;;;5.38;2.83;;;8.80;99.90;;;;;;5103654;28;20369;-80
2021/12/01 05:28:12;;;;;;;3.25;2.60;;;8.80;99.90;;;;;;5109547;28;20448;-80
2021/12/01 05:30:37;;;;;;;4.43;2.28;;;8.80;99.90;;;;;;5093382;28;20023;-80
2021/12/01 05:33:09;;;;;;;3.05;2.25;;;8.80;99.90;;;;;;5065832;28;20036;-80
2021/12/01 05:35:36;;;;;;;4.70;2.60;;;8.80;99.90;;;;;;5082691;28;20023;-80
2021/12/01 05:38:04;;;;;;;3.28;2.50;;;8.80;99.90;;;;;;5105451;28;20020;-80
2021/12/01 05:40:30;;;;;;;2.63;2.42;;;8.70;99.90;;;;;;5087343;28;20852;-80
2021/12/01 05:42:56;;;;;;;4.65;2.40;;;8.70;99.90;;;;;;5092312;28;20027;-80
2021/12/01 05:45:22;;;;;;;2.67;2.35;;;8.70;99.90;;;;;;5089520;28;20035;-80
2021/12/01 05:47:48;;;;;;;2.72;2.50;;;8.70;99.90;;;;;;5099372;28;20104;-80
2021/12/01 05:50:14;;;;;;;4.72;2.85;;;8.70;99.90;;;;;;5079910;28;20111;-80
2021/12/01 05:52:39;;;;;;;5.32;2.65;;;8.70;99.90;;;;;;5114320;28;20022;-80
2021/12/01 05:55:06;;;;;;;3.53;2.70;;;8.70;99.90;;;;;;5076382;28;20032;-80
2021/12/01 05:57:32;;;;;;;5.30;2.65;;;8.70;99.90;;;;;;5076325;28;20118;-80
2021/12/01 05:59:59;;;;;;;3.03;2.35;;;8.60;99.90;;;;;;5090834;28;20031;-80
2021/12/01 06:02:26;;;;;;;4.30;2.75;;;8.60;99.90;;;;;;5095201;28;20929;-80
2021/12/01 06:04:52;;;;;;;3.63;2.70;;;8.60;99.90;;;;;;5083968;28;20031;-80
2021/12/01 06:07:18;;;;;;;3.08;2.53;;;8.60;99.90;;;;;;5097149;28;20020;-80
2021/12/01 06:09:44;;;;;;;4.45;2.22;;;8.60;99.90;;;;;;5075144;28;20106;-80
2021/12/01 06:12:12;;;;;;;5.25;2.70;;;8.60;99.90;;;;;;5109931;28;20426;-80
2021/12/01 06:14:40;;;;;;;3.25;2.90;;;8.50;99.90;;;;;;5103911;28;20028;-79
2021/12/01 06:17:07;;;;;;;3.97;2.72;;;8.50;99.90;;;;;;5108022;28;20088;-80
2021/12/01 06:19:32;;;;;;;3.35;2.63;;;8.60;99.90;;;;;;5107299;28;20039;-80
2021/12/01 06:21:58;;;;;;;4.10;2.60;;;8.60;99.90;;;;;;5084291;28;20065;-80
2021/12/01 06:24:24;;;;;;;4.00;2.70;;;8.50;99.90;;;;;;5081135;28;20060;-80
2021/12/01 06:26:49;;;;;;;3.42;2.60;;;8.50;99.90;;;;;;5086274;28;20114;-80
2021/12/01 06:29:15;;;;;;;3.08;2.25;;;8.50;99.90;;;;;;5080847;28;20031;-87
2021/12/01 06:31:40;;;;;;;3.80;2.63;;;8.60;99.90;;;;;;5083509;28;20024;-87
2021/12/01 06:34:06;;;;;;;3.10;2.60;;;8.60;99.90;;;;;;5084446;28;20688;-87
2021/12/01 06:36:32;;;;;;;5.15;2.58;;;8.60;99.90;;;;;;5108383;28;20032;-87
2021/12/01 06:38:58;;;;;;;4.32;2.10;;;8.60;99.90;;;;;;5089545;28;20043;-87
2021/12/01 06:41:23;;;;;;;2.50;2.25;;;8.50;99.90;;;;;;5065537;28;20398;-87
2021/12/01 06:43:49;;;;;;;3.35;2.20;;;8.60;99.90;;;;;;5058841;28;20047;-87
2021/12/01 06:46:14;;;;;;;4.18;2.30;;;8.50;99.90;;;;;;5103091;28;20031;-87
2021/12/01 06:48:40;;;;;;;4.68;2.35;;;8.50;99.90;;;;;;5065585;28;20017;-87
2021/12/01 06:51:06;;;;;;;2.30;2.10;;;8.60;99.90;;;;;;5053656;28;20526;-87
2021/12/01 06:53:31;;;;;;;2.60;1.80;;;8.60;99.90;;;;;;5089459;28;20046;-87
2021/12/01 06:55:57;;;;;;;2.65;2.20;;;8.60;99.90;;;;;;5049176;28;20352;-87
2021/12/01 06:58:23;;;;;;;2.38;1.90;;;8.60;99.90;;;;;;5070379;28;20032;-87
2021/12/01 07:00:48;;;;;;;2.08;1.90;;;8.60;99.90;;;;;;5086859;28;20035;-87
2021/12/01 07:03:14;;;;;;;3.72;1.88;;;8.60;99.90;;;;;;5057110;28;20390;-85
2021/12/01 07:05:40;;;;;;;3.72;2.40;;;8.60;99.90;;;;;;5063879;28;20020;-88
2021/12/01 07:08:05;;;;;;;3.15;1.80;;;8.60;99.90;;;;;;5058648;28;20024;-87
2021/12/01 07:10:31;;;;;;;2.50;1.98;;;8.60;99.90;;;;;;5106236;28;20055;-87
2021/12/01 07:12:57;;;;;;;2.30;1.80;;;8.60;99.90;;;;;;5069312;28;20043;-88
2021/12/01 07:15:22;;;;;;;2.38;2.10;;;8.60;99.90;;;;;;5091838;28;20032;-88
2021/12/01 07:17:48;;;;;;;2.53;2.05;;;8.60;99.90;;;;;;5091688;28;20088;-79
2021/12/01 07:20:15;;;;;;;3.83;2.33;;;8.60;99.90;;;;;;5085121;28;20103;-80
2021/12/01 07:22:42;;;;;;;4.97;2.40;;;8.60;99.90;;;;;;5060919;28;20031;-80
2021/12/01 07:25:08;;;;;;;2.28;1.80;;;8.60;99.90;;;;;;5098634;28;20084;-79
2021/12/01 07:27:34;;;;;;;2.20;1.88;;;8.60;99.90;;;;;;5093671;28;20035;-79
2021/12/01 07:30:00;;;;;;;2.83;2.22;;;8.60;99.90;;;;;;5066821;28;20019;-77
2021/12/01 07:32:25;;;;;;;2.40;1.90;;;8.60;99.90;;;;;;5087452;28;20020;-77
2021/12/01 07:34:51;;;;;;;2.55;1.90;;;8.60;99.90;;;;;;5049665;28;20035;-77
2021/12/01 07:37:18;;;;;;;2.40;1.88;;;8.60;99.90;;;;;;5072153;28;20028;-76
2021/12/01 07:39:45;;;;;;;4.90;2.10;;;8.60;99.90;;;;;;5083678;28;20476;-77
2021/12/01 07:42:12;;;;;;;3.55;2.20;;;8.60;99.90;;;;;;5067535;28;20089;-77
2021/12/01 07:44:38;;;;;;;2.17;1.80;;;8.60;99.90;;;;;;5103874;28;20043;-77
2021/12/01 07:47:05;;;;;;;3.03;1.75;;;8.70;99.90;;;;;;5090542;28;20112;-76
2021/12/01 07:49:31;;;;;;;2.88;2.10;;;8.70;99.90;;;;;;5099624;28;20023;-76
2021/12/01 07:51:57;;;;;;;2.55;1.70;;;8.70;99.90;;;;;;5072324;28;20047;-76
2021/12/01 07:54:22;;;;;;;2.47;1.55;;;8.70;99.90;;;;;;5062834;28;20394;-76
2021/12/01 07:56:48;;;;;;;4.70;2.10;;;8.70;99.90;;;;;;5068584;28;20110;-76
2021/12/01 07:59:17;;;;;;;4.13;1.73;;;8.70;99.90;;;;;;5084909;28;20503;-76
2021/12/01 08:01:43;;;;;;;2.97;1.90;;;8.70;99.90;;;;;;5070564;28;20043;-76
2021/12/01 08:04:10;;;;;;;2.50;1.90;;;8.70;99.90;;;;;;5094997;28;20499;-76
2021/12/01 08:06:37;;;;;;;1.70;1.50;;;8.70;99.90;;;;;;5071328;28;20032;-77
2021/12/01 08:09:03;;;;;;;3.38;1.70;;;8.70;99.90;;;;;;5069142;28;20020;-76
2021/12/01 08:11:29;;;;;;;2.30;1.60;;;8.70;99.90;;;;;;5086164;28;20428;-76
2021/12/01 08:13:55;;;;;;;3.33;1.50;;;8.70;99.90;;;;;;5070307;28;20123;-76
2021/12/01 08:16:21;;;;;;;2.58;1.40;;;8.70;99.90;;;;;;5113306;28;20387;-76
2021/12/01 08:18:55;;;;;;;1.50;1.30;;;8.70;99.90;;;;;;5082542;28;20395;-76
2021/12/01 08:21:23;;;;;;;1.40;1.30;;;8.80;99.90;;;;;;5058668;28;20118;-76
2021/12/01 08:23:49;;;;;;;7.75;1.50;;;8.80;99.90;;;;;;5074351;28;20027;-76
2021/12/01 08:26:14;;;;;;;1.38;1.27;;;8.80;99.90;;;;;;5069458;28;20032;-77
2021/12/01 08:28:45;;;;;;;2.92;1.00;;;8.80;99.90;;;;;;5067313;28;20035;-76
2021/12/01 08:31:12;;;;;;;2.45;1.10;;;8.80;99.90;;;;;;5078734;28;20028;-76
2021/12/01 08:33:38;;;;;;;1.42;0.80;;;8.80;99.90;;;;;;5070278;28;20027;-76
2021/12/01 08:36:04;;;;;;;1.10;0.90;;;8.80;99.90;;;;;;5077510;28;20031;-76
2021/12/01 08:38:30;;;;;;;2.25;0.90;;;8.80;99.90;;;;;;5097451;28;20028;-76
2021/12/01 08:40:55;;;;;;;0.95;0.80;;;8.80;99.90;;;;;;5080945;28;20145;-77
2021/12/01 08:43:21;;;;;;;1.15;0.90;;;8.90;99.90;;;;;;5069805;28;20032;-84
2021/12/01 08:45:46;;;;;;;1.23;0.80;;;8.90;99.90;;;;;;5062067;28;20484;-81
2021/12/01 08:48:12;;;;;;;2.38;1.00;;;8.90;99.90;;;;;;5076536;28;20047;-82
2021/12/01 08:50:38;;;;;;;1.70;0.70;;;8.90;99.90;;;;;;5098957;28;20155;-82
2021/12/01 08:53:03;;;;;;;0.77;0.70;;;8.90;99.90;;;;;;5084229;28;20028;-82
2021/12/01 08:55:29;;;;;;;2.97;0.90;;;8.90;99.90;;;;;;5082075;28;20492;-80
2021/12/01 08:57:55;;;;;;;0.85;0.82;;;8.90;99.90;;;;;;5080240;28;20020;-82
2021/12/01 09:00:21;;;;;;;0.75;0.70;;;8.90;99.90;;;;;;5094485;28;20502;-82
2021/12/01 09:02:47;;;;;;;2.25;0.70;;;9.00;99.90;;;;;;5075088;28;20027;-81
2021/12/01 09:05:12;;;;;;;0.60;0.50;;;9.00;99.90;;;;;;5064366;28;20024;-81
2021/12/01 09:07:39;;;;;;;0.73;0.60;;;9.10;99.90;;;;;;5082223;28;20034;-82
2021/12/01 09:10:06;;;;;;;1.83;0.75;;;9.10;99.90;;;;;;5101442;28;20496;-83
2021/12/01 09:12:32;;;;;;;2.80;0.65;;;9.10;99.90;;;;;;5062840;28;20077;-82
2021/12/01 09:14:58;;;;;;;0.80;0.70;;;9.20;99.90;;;;;;5081953;28;20028;-82
2021/12/01 09:17:24;;;;;;;0.90;0.60;;;9.20;99.90;;;;;;5097107;28;20066;-81
2021/12/01 09:19:51;;;;;;;0.85;0.55;;;9.20;99.90;;;;;;5081417;28;20107;-82
2021/12/01 09:22:18;;;;;;;0.50;0.50;;;9.20;99.90;;;;;;5081351;28;20376;-81
2021/12/01 09:24:45;;;;;;;0.65;0.43;;;9.30;99.90;;;;;;5097126;28;20116;-82
2021/12/01 09:27:11;;;;;;;2.05;0.63;;;9.30;99.90;;;;;;5099419;28;20481;-76
2021/12/01 09:29:37;;;;;;;0.47;0.40;;;9.30;99.90;;;;;;5069418;28;20024;-76
2021/12/01 09:32:04;;;;;;;1.45;0.70;;;9.30;99.90;;;;;;5081573;28;20048;-76
2021/12/01 09:34:30;;;;;;;0.88;0.55;;;9.30;99.90;;;;;;5084477;28;20426;-81
2021/12/01 09:36:56;;;;;;;0.68;0.60;;;9.30;99.90;;;;;;5100370;28;20498;-81
2021/12/01 09:39:23;;;;;;;0.50;0.50;;;9.30;99.90;;;;;;5083493;28;20036;-81
2021/12/01 09:41:49;;;;;;;0.70;0.70;;;9.30;99.90;;;;;;5066593;28;20038;-80
2021/12/01 09:44:15;;;;;;;0.60;0.60;;;9.30;99.90;;;;;;5099436;28;20040;-81
2021/12/01 09:46:41;;;;;;;0.70;0.63;;;9.30;99.90;;;;;;5082919;28;20069;-81
2021/12/01 09:49:06;;;;;;;0.82;0.50;;;9.30;99.90;;;;;;5083574;28;20024;-81
2021/12/01 09:51:33;;;;;;;0.73;0.73;;;9.30;99.90;;;;;;5101786;28;20635;-81
2021/12/01 09:54:00;;;;;;;1.55;0.70;;;9.30;99.90;;;;;;5101504;28;20039;-81
2021/12/01 09:56:27;;;;;;;0.80;0.80;;;9.30;99.90;;;;;;5097917;28;20016;-82
2021/12/01 09:58:53;;;;;;;1.10;0.82;;;9.30;99.90;;;;;;5086905;28;20694;-81
2021/12/01 10:01:21;;;;;;;0.70;0.70;;;9.30;99.90;;;;;;5093939;28;20031;-82
2021/12/01 10:03:47;;;;;;;1.50;0.90;;;9.30;99.90;;;;;;5080730;28;20461;-81
2021/12/01 10:06:17;;;;;;;1.67;0.88;;;9.30;99.90;;;;;;5081294;28;20795;-82
2021/12/01 10:08:46;;;;;;;1.10;0.95;;;9.40;99.90;;;;;;5102903;28;20084;-82
2021/12/01 10:11:19;;;;;;;3.67;1.25;;;9.40;99.90;;;;;;5082411;28;20043;-75
2021/12/01 10:13:54;;;;;;;1.25;0.95;;;9.40;99.90;;;;;;5094982;28;20488;-76
2021/12/01 10:16:21;;;;;;;0.90;0.90;;;9.40;99.90;;;;;;5102242;28;20371;-76
2021/12/01 10:18:49;;;;;;;1.80;1.05;;;9.40;99.90;;;;;;5092571;28;20056;-76
2021/12/01 10:21:19;;;;;;;2.58;0.90;;;9.40;99.90;;;;;;5096849;28;20030;-76
2021/12/01 10:23:52;;;;;;;1.83;1.20;;;9.40;99.90;;;;;;5089704;28;20075;-76
2021/12/01 10:26:27;;;;;;;1.33;1.20;;;9.40;99.90;;;;;;5075002;28;20040;-76
2021/12/01 10:28:55;;;;;;;2.67;1.70;;;9.40;99.90;;;;;;5092582;28;20545;-76
2021/12/01 10:31:35;;;;;;;2.75;1.30;;;9.40;99.90;;;;;;5098165;28;20035;-77
2021/12/01 10:34:21;;;;;;;2.83;1.85;;;9.50;99.90;;;;;;5093852;28;20030;-76
2021/12/01 10:36:49;;;;;;;3.28;1.70;;;9.50;99.90;;;;;;5095776;28;20484;-76
2021/12/01 10:39:15;;;;;;;2.75;2.00;;;9.50;99.90;;;;;;5072622;28;20544;-76
2021/12/01 10:41:43;;;;;;;2.15;2.00;;;9.50;99.90;;;;;;5094719;28;20031;-75
2021/12/01 10:44:12;;;;;;;2.45;2.25;;;9.60;99.90;;;;;;5072575;28;20072;-76
2021/12/01 10:46:47;;;;;;;3.10;2.33;;;9.60;99.90;;;;;;5098920;28;20021;-76
2021/12/01 10:49:14;;;;;;;3.25;1.90;;;9.70;99.90;;;;;;5073710;28;20035;-77
2021/12/01 10:51:42;;;;;;;3.55;2.15;;;9.70;99.90;;;;;;5091613;28;20409;-77
2021/12/01 10:54:20;;;;;;;2.88;2.10;;;9.70;99.90;;;;;;5072977;28;20127;-78
2021/12/01 10:57:23;;;;;;;5.10;2.00;;;9.70;99.90;;;;;;5074788;28;20052;-77
2021/12/01 10:59:52;;;;;;;2.50;2.30;;;9.70;99.90;;;;;;5054137;28;20096;-77
2021/12/01 11:02:19;;;;;;;3.00;2.30;;;9.60;99.90;;;;;;5099529;28;20031;-82
2021/12/01 11:04:53;;;;;;;3.85;2.30;;;9.60;99.90;;;;;;5063040;28;20039;-82
2021/12/01 11:07:29;;;;;;;5.03;2.72;;;9.60;99.90;;;;;;5097570;28;20062;-83
2021/12/01 11:10:18;;;;;;;2.63;0.85;;;9.70;99.90;;;;;;5076973;28;20025;-82
2021/12/01 11:12:45;;;;;;;;;;;9.60;99.90;;;;;;5077300;28;20020;-82
2021/12/01 11:15:19;;;;;;;5.05;0.80;;;9.50;99.90;;;;;;5073640;28;19915;-83
2021/12/01 11:17:46;;;;;;;4.38;0.80;;;9.50;99.90;;;;;;5092601;28;20028;-78
2021/12/01 11:20:12;;;;;;;7.20;0.90;;;9.40;99.90;;;;;;5068573;28;20088;-78
2021/12/01 11:22:37;;;;;;;8.18;0.93;;;9.40;99.90;;;;;;5083042;28;20028;-84
2021/12/01 11:25:20;;;;;;;7.72;1.52;;;9.40;99.90;;;;;;5078097;28;20495;-84
2021/12/01 11:27:46;;;;;;;7.53;1.10;;;9.40;99.90;;;;;;5097332;28;20016;-84
2021/12/01 11:30:12;;;;;;;4.15;1.23;;;9.30;99.90;;;;;;5075543;28;20361;-84
2021/12/01 11:32:39;;;;;;;11.88;1.00;;;9.40;99.90;;;;;;5074562;28;20052;-83
2021/12/01 11:35:05;;;;;;;11.05;1.20;;;9.40;99.90;;;;;;5078387;28;21370;-84
2021/12/01 11:37:30;;;;;;;6.68;1.17;;;9.30;99.90;;;;;;5064162;28;20074;-84
2021/12/01 11:39:58;;;;;;;11.60;1.27;;;9.30;99.90;;;;;;5068402;28;20043;-83
2021/12/01 11:42:24;;;;;;;5.75;1.02;;;9.30;99.90;;;;;;5075938;28;20035;-84
2021/12/01 11:44:51;;;;;;;8.60;1.45;;;9.30;99.90;;;;;;5097311;28;20048;-84
2021/12/01 11:47:18;;;;;;;4.50;1.53;;;9.30;99.90;;;;;;5064526;28;20097;-78
2021/12/01 11:49:44;;;;;;;7.90;1.65;;;9.40;99.90;;;;;;5077669;28;20484;-77
2021/12/01 11:52:10;;;;;;;6.53;0.85;;;9.40;99.90;;;;;;5075227;28;20032;-77
2021/12/01 11:54:46;;;;;;;9.15;1.10;;;9.40;99.90;;;;;;5076200;28;20034;-77
2021/12/01 11:57:12;;;;;;;6.57;1.10;;;9.40;99.90;;;;;;5092635;28;20095;-77
2021/12/01 11:59:43;;;;;;;7.85;1.10;;;9.40;99.60;;;;;;5096156;28;20066;-77
2021/12/01 12:02:18;;;;;;;8.57;1.15;;;9.40;99.80;;;;;;5094693;28;20031;-77
2021/12/01 12:04:49;;;;;;;6.82;1.02;;;9.40;99.90;;;;;;5104457;28;20119;-81
2021/12/01 12:07:15;;;;;;;5.40;1.25;;;9.40;99.90;;;;;;5109929;28;20635;-81
2021/12/01 12:09:41;;;;;;;6.53;0.93;;;9.40;99.90;;;;;;5110133;28;20104;-81
2021/12/01 12:12:11;;;;;;;5.30;0.98;;;9.50;99.90;;;;;;5111970;28;20055;-81
2021/12/01 12:14:55;;;;;;;12.45;1.75;;;9.60;99.90;;;;;;5110911;28;20066;-81
2021/12/01 12:17:32;;;;;;;6.90;0.82;;;9.60;99.90;;;;;;5085612;28;20012;-81
2021/12/01 12:20:03;;;;;;;5.32;1.00;;;9.60;99.90;;;;;;5109058;28;20483;-81
2021/12/01 12:22:51;;;;;;;7.32;0.93;;;9.60;99.90;;;;;;5082665;28;20101;-81
2021/12/01 12:25:43;;;;;;;5.97;0.57;;;9.60;99.90;;;;;;5111430;28;20019;-81
2021/12/01 12:28:35;;;;;;;5.70;0.82;;;9.60;99.90;;;;;;5105118;28;20479;-83
2021/12/01 12:31:19;;;;;;;8.32;0.90;;;9.70;99.80;;;;;;5107392;28;20329;-83
2021/12/01 12:34:01;;;;;;;10.43;0.85;;;9.70;99.60;;;;;;5091644;28;20076;-81
2021/12/01 12:36:47;;;;;;;7.43;0.95;;;9.70;99.30;;;;;;5108878;28;21215;-79
2021/12/01 12:39:38;;;;;;;7.65;0.75;;;9.70;99.10;;;;;;5108312;28;20716;-79
2021/12/01 12:42:05;;;;;;;5.60;0.88;;;9.70;99.30;;;;;;5086072;28;20432;-89
2021/12/01 12:44:32;;;;;;;3.45;0.60;;;9.70;99.20;;;;;;5089365;28;20561;-86
2021/12/01 12:47:10;;;;;;;5.18;1.00;;;9.70;98.80;;;;;;5089200;28;20086;-87
2021/12/01 12:49:43;;;;;;;7.80;0.85;;;9.60;98.70;;;;;;5089901;28;20047;-86
2021/12/01 12:52:27;;;;;;;11.27;1.00;;;9.60;98.50;;;;;;5091723;28;20044;-86
2021/12/01 12:54:53;;;;;;;6.80;0.98;;;9.60;98.60;;;;;;5083209;28;20094;-86
2021/12/01 12:57:20;;;;;;;6.53;0.60;;;9.60;98.60;;;;;;5084083;28;20796;-82
2021/12/01 12:59:46;;;;;;;4.95;0.95;;;9.60;97.90;;;;;;5065707;28;20121;-81
2021/12/01 13:02:15;;;;;;;11.45;1.13;;;9.50;98.00;;;;;;5088146;28;20027;-81
2021/12/01 13:05:01;;;;;;;3.15;0.75;;;9.50;98.20;;;;;;5092434;28;20024;-80
2021/12/01 13:07:30;;;;;;;5.72;0.90;;;9.40;98.50;;;;;;5084807;28;21842;-80
2021/12/01 13:10:13;;;;;;;3.08;0.77;;;9.40;98.70;;;;;;5088874;28;20102;-80